Time;durP1;ratioP1;P1;durP2;ratioP2;P2;SDS_P1;SDS_P2;PMS_P1;PMS_P2;Temp;Humidity;BMP_temperature;BMP_pressure;BME280_temperature;BME280_humidity;BME280_pressure;Samples;Min_cycle;Max_cycle;Signal;HPM_P1;HPM_P2
2021/05/21 00:00:30;;;;;;;2.28;1.27;;;11.80;99.90;;;;;;5007721;28;20030;-77
2021/05/21 00:02:57;;;;;;;3.70;2.40;;;11.80;99.90;;;;;;4997479;28;20037;-76
2021/05/21 00:05:23;;;;;;;4.18;1.73;;;11.80;99.90;;;;;;5010637;28;20025;-76
2021/05/21 00:07:49;;;;;;;1.60;1.40;;;11.80;99.90;;;;;;4998392;28;20014;-76
2021/05/21 00:10:14;;;;;;;1.90;1.60;;;11.80;99.90;;;;;;5007340;28;20022;-76
2021/05/21 00:12:40;;;;;;;1.85;1.23;;;11.80;99.90;;;;;;4996967;28;20065;-76
2021/05/21 00:15:07;;;;;;;1.60;1.42;;;11.80;99.90;;;;;;5003357;28;20047;-77
2021/05/21 00:17:33;;;;;;;2.40;1.30;;;11.90;99.90;;;;;;4995475;28;20027;-80
2021/05/21 00:19:58;;;;;;;1.92;1.52;;;11.80;99.90;;;;;;5000061;28;20041;-77
2021/05/21 00:22:24;;;;;;;1.40;1.30;;;11.90;99.90;;;;;;4996178;28;20026;-78
2021/05/21 00:24:50;;;;;;;3.15;1.30;;;11.90;99.90;;;;;;5000574;28;20094;-77
2021/05/21 00:27:16;;;;;;;1.20;1.10;;;11.80;99.90;;;;;;4991980;28;20034;-77
2021/05/21 00:29:41;;;;;;;1.20;1.10;;;11.80;99.90;;;;;;4991267;28;20475;-78
2021/05/21 00:32:07;;;;;;;1.30;1.10;;;11.80;99.90;;;;;;4988081;28;20027;-78
2021/05/21 00:34:32;;;;;;;1.33;0.98;;;11.80;99.90;;;;;;4986763;28;20031;-77
2021/05/21 00:36:58;;;;;;;6.03;1.42;;;11.90;99.90;;;;;;4987224;28;20550;-78
2021/05/21 00:39:24;;;;;;;1.73;1.17;;;11.90;99.90;;;;;;4985882;28;20027;-78
2021/05/21 00:41:49;;;;;;;1.10;0.98;;;11.90;99.90;;;;;;4989417;28;20058;-77
2021/05/21 00:44:15;;;;;;;1.65;1.00;;;11.90;99.90;;;;;;4992319;28;20079;-78
2021/05/21 00:46:41;;;;;;;1.60;1.17;;;11.90;99.90;;;;;;4989154;28;20395;-77
2021/05/21 00:49:07;;;;;;;3.17;1.10;;;11.90;99.90;;;;;;4991259;28;20035;-78
2021/05/21 00:51:33;;;;;;;1.33;1.08;;;11.80;99.90;;;;;;4991767;28;20074;-77
2021/05/21 00:53:59;;;;;;;2.53;1.23;;;11.80;99.90;;;;;;4991378;28;20039;-77
2021/05/21 00:56:31;;;;;;;1.38;1.00;;;11.80;99.90;;;;;;4990307;28;20033;-77
2021/05/21 00:58:58;;;;;;;1.48;1.05;;;11.80;99.90;;;;;;4988714;28;20254;-78
2021/05/21 01:01:24;;;;;;;1.85;1.10;;;11.70;99.90;;;;;;4987562;28;20431;-77
2021/05/21 01:03:50;;;;;;;1.80;1.17;;;11.80;99.90;;;;;;4993523;28;20023;-76
2021/05/21 01:06:16;;;;;;;1.08;0.88;;;11.80;99.90;;;;;;5001831;28;20018;-76
2021/05/21 01:08:41;;;;;;;1.27;1.17;;;11.80;99.90;;;;;;5000647;28;20181;-76
2021/05/21 01:11:08;;;;;;;1.92;1.10;;;11.90;99.90;;;;;;4990175;28;20019;-77
2021/05/21 01:13:35;;;;;;;2.03;1.20;;;11.90;99.90;;;;;;4991265;28;20086;-77
2021/05/21 01:16:01;;;;;;;3.08;1.42;;;11.90;99.90;;;;;;4986875;28;20054;-77
2021/05/21 01:18:27;;;;;;;3.58;1.20;;;11.80;99.90;;;;;;4983849;28;20051;-78
2021/05/21 01:20:52;;;;;;;4.20;1.45;;;11.80;99.90;;;;;;5000440;28;20026;-78
2021/05/21 01:23:18;;;;;;;2.40;1.40;;;11.80;99.90;;;;;;4988202;28;20098;-78
2021/05/21 01:25:44;;;;;;;1.25;1.08;;;11.80;99.90;;;;;;4990109;28;20026;-76
2021/05/21 01:28:12;;;;;;;2.67;1.05;;;11.80;99.90;;;;;;4990851;28;20073;-78
2021/05/21 01:30:38;;;;;;;2.10;1.02;;;11.80;99.90;;;;;;4986824;28;20019;-78
2021/05/21 01:33:10;;;;;;;1.38;1.00;;;11.80;99.90;;;;;;4985420;28;20042;-77
2021/05/21 01:35:36;;;;;;;2.90;1.10;;;11.80;99.90;;;;;;4985088;28;20019;-77
2021/05/21 01:38:02;;;;;;;1.60;1.02;;;11.80;99.90;;;;;;4984706;28;20034;-77
2021/05/21 01:40:29;;;;;;;2.38;1.30;;;11.80;99.90;;;;;;4989292;28;20090;-78
2021/05/21 01:43:00;;;;;;;1.08;0.90;;;11.80;99.90;;;;;;4989069;28;20027;-76
2021/05/21 01:45:26;;;;;;;1.42;0.95;;;11.70;99.90;;;;;;4968348;28;20019;-77
2021/05/21 01:47:52;;;;;;;1.38;1.00;;;11.90;99.90;;;;;;4985218;28;20058;-78
2021/05/21 01:50:18;;;;;;;2.45;1.00;;;11.80;99.90;;;;;;4986865;28;20034;-78
2021/05/21 01:52:45;;;;;;;1.67;1.10;;;11.90;99.90;;;;;;5002033;28;20050;-77
2021/05/21 01:55:12;;;;;;;2.15;1.58;;;11.90;99.90;;;;;;4984822;28;20030;-77
2021/05/21 01:57:38;;;;;;;1.48;1.10;;;12.00;99.90;;;;;;5000473;28;20026;-77
2021/05/21 02:00:08;;;;;;;3.60;0.90;;;11.90;99.90;;;;;;4982475;28;20022;-76
2021/05/21 02:02:35;;;;;;;1.60;0.88;;;12.00;99.90;;;;;;4981836;28;20085;-77
2021/05/21 02:05:00;;;;;;;1.42;0.80;;;12.10;99.90;;;;;;4989514;28;20054;-77
2021/05/21 02:07:26;;;;;;;1.08;0.98;;;12.10;99.90;;;;;;4989831;28;20370;-78
2021/05/21 02:10:00;;;;;;;1.10;1.00;;;12.20;99.90;;;;;;4984530;28;20018;-78
2021/05/21 02:12:28;;;;;;;5.38;1.15;;;12.20;99.90;;;;;;4994890;28;20065;-76
2021/05/21 02:14:55;;;;;;;1.55;1.02;;;12.20;99.90;;;;;;4998217;28;20074;-79
2021/05/21 02:17:21;;;;;;;1.05;0.77;;;12.10;99.90;;;;;;4999061;28;20054;-77
2021/05/21 02:19:47;;;;;;;0.77;0.77;;;12.10;99.90;;;;;;4999715;28;20035;-76
2021/05/21 02:22:13;;;;;;;1.02;0.80;;;12.20;99.90;;;;;;4999470;28;20081;-76
2021/05/21 02:24:39;;;;;;;2.33;1.02;;;12.20;99.90;;;;;;4995046;28;20058;-78
2021/05/21 02:27:05;;;;;;;2.50;1.25;;;12.20;99.90;;;;;;4987720;28;20027;-78
2021/05/21 02:29:31;;;;;;;1.27;0.90;;;12.10;99.90;;;;;;4998800;28;20047;-76
2021/05/21 02:31:57;;;;;;;2.65;0.77;;;12.10;99.90;;;;;;4998738;28;20029;-76
2021/05/21 02:34:22;;;;;;;1.40;0.90;;;12.00;99.90;;;;;;4999345;28;20045;-76
2021/05/21 02:36:48;;;;;;;1.30;0.90;;;12.00;99.90;;;;;;5003341;28;20019;-76
2021/05/21 02:39:14;;;;;;;1.00;0.90;;;12.00;99.90;;;;;;4987722;28;20077;-77
2021/05/21 02:41:39;;;;;;;1.27;1.10;;;12.10;99.90;;;;;;4984577;28;20105;-77
2021/05/21 02:44:05;;;;;;;1.10;1.00;;;12.10;99.90;;;;;;4989710;28;20064;-77
2021/05/21 02:46:31;;;;;;;1.05;0.77;;;12.10;99.90;;;;;;5001275;28;20430;-78
2021/05/21 02:48:56;;;;;;;1.13;0.80;;;12.10;99.90;;;;;;4988939;28;20019;-78
2021/05/21 02:51:22;;;;;;;1.10;0.93;;;12.00;99.90;;;;;;4991279;28;20037;-77
2021/05/21 02:53:48;;;;;;;1.15;0.98;;;12.00;99.90;;;;;;4989284;28;20051;-76
2021/05/21 02:56:13;;;;;;;1.52;1.00;;;12.00;99.90;;;;;;4985839;28;20063;-77
2021/05/21 02:58:39;;;;;;;1.85;1.00;;;12.00;99.90;;;;;;4985119;28;20030;-78
2021/05/21 03:01:04;;;;;;;0.80;0.80;;;12.00;99.90;;;;;;4985509;28;20019;-77
2021/05/21 03:03:30;;;;;;;1.13;1.02;;;12.00;99.90;;;;;;4999093;28;20031;-77
2021/05/21 03:05:56;;;;;;;0.80;0.77;;;12.00;99.90;;;;;;4982574;28;20031;-77
2021/05/21 03:08:22;;;;;;;1.60;1.10;;;12.00;99.90;;;;;;4986030;28;20031;-77
2021/05/21 03:10:49;;;;;;;0.70;0.65;;;11.90;99.90;;;;;;4986403;28;20042;-75
2021/05/21 03:13:15;;;;;;;1.40;0.88;;;11.90;99.90;;;;;;4984993;28;20034;-78
2021/05/21 03:15:44;;;;;;;0.95;0.82;;;11.90;99.90;;;;;;4984597;28;20038;-78
2021/05/21 03:18:14;;;;;;;1.08;0.80;;;11.90;99.90;;;;;;4985741;28;21230;-77
2021/05/21 03:20:41;;;;;;;3.88;0.77;;;11.90;99.90;;;;;;4991145;28;20033;-77
2021/05/21 03:23:08;;;;;;;0.95;0.80;;;11.80;99.90;;;;;;5007094;28;20027;-77
2021/05/21 03:25:34;;;;;;;1.23;1.13;;;11.80;99.90;;;;;;4993620;28;20030;-77
2021/05/21 03:27:59;;;;;;;2.80;0.80;;;11.80;99.90;;;;;;4998161;28;20059;-77
2021/05/21 03:30:25;;;;;;;0.70;0.60;;;11.70;99.90;;;;;;4986841;28;20046;-77
2021/05/21 03:32:51;;;;;;;1.02;0.93;;;11.80;99.90;;;;;;4988961;28;20085;-77
2021/05/21 03:35:17;;;;;;;1.05;0.90;;;11.80;99.90;;;;;;4980049;28;20035;-77
2021/05/21 03:37:42;;;;;;;2.15;0.90;;;11.70;99.90;;;;;;4986160;28;20399;-76
2021/05/21 03:40:08;;;;;;;1.80;1.00;;;11.80;99.90;;;;;;4985961;28;20042;-77
2021/05/21 03:42:34;;;;;;;2.83;1.27;;;11.80;99.90;;;;;;4984215;28;20034;-77
2021/05/21 03:45:00;;;;;;;1.20;0.80;;;11.70;99.90;;;;;;4986132;28;20086;-77
2021/05/21 03:47:26;;;;;;;1.55;0.90;;;11.80;99.90;;;;;;4987113;28;20053;-77
2021/05/21 03:49:52;;;;;;;1.83;0.95;;;11.80;99.90;;;;;;4988150;28;20471;-76
2021/05/21 03:52:18;;;;;;;2.95;1.00;;;11.80;99.90;;;;;;4984509;28;20031;-76
2021/05/21 03:54:43;;;;;;;1.10;0.75;;;11.70;99.90;;;;;;4981217;28;20030;-77
2021/05/21 03:57:09;;;;;;;1.20;0.98;;;11.80;99.90;;;;;;4978167;28;20177;-77
2021/05/21 03:59:35;;;;;;;1.30;1.00;;;11.80;99.90;;;;;;4982948;28;20030;-77
2021/05/21 04:02:00;;;;;;;1.42;0.90;;;11.80;99.90;;;;;;4983606;28;20094;-77
2021/05/21 04:04:26;;;;;;;1.33;0.95;;;11.80;99.90;;;;;;4984757;28;20030;-77
2021/05/21 04:06:52;;;;;;;2.67;1.00;;;11.80;99.90;;;;;;4981428;28;20034;-78
2021/05/21 04:09:17;;;;;;;1.20;0.70;;;11.90;99.90;;;;;;4987519;28;20041;-78
2021/05/21 04:11:43;;;;;;;1.25;0.95;;;11.90;99.90;;;;;;4988434;28;20023;-78
2021/05/21 04:14:09;;;;;;;3.80;0.80;;;12.00;99.90;;;;;;4986984;28;20027;-78
2021/05/21 04:16:34;;;;;;;2.40;0.80;;;12.00;99.90;;;;;;4982102;28;20035;-77
2021/05/21 04:19:00;;;;;;;1.00;0.90;;;12.00;99.90;;;;;;4983423;28;20042;-78
2021/05/21 04:21:27;;;;;;;2.40;1.00;;;12.10;99.90;;;;;;4984344;28;20094;-77
2021/05/21 04:23:54;;;;;;;3.13;1.60;;;12.10;99.90;;;;;;4983046;28;20038;-78
2021/05/21 04:26:20;;;;;;;0.80;0.70;;;12.20;99.90;;;;;;4981892;28;20042;-77
2021/05/21 04:28:48;;;;;;;1.13;0.80;;;12.10;99.90;;;;;;4983004;28;20019;-77
2021/05/21 04:31:17;;;;;;;2.30;1.00;;;12.20;99.90;;;;;;4990069;28;20046;-75
2021/05/21 04:33:43;;;;;;;1.17;0.73;;;12.30;99.90;;;;;;4995470;28;20058;-79
2021/05/21 04:36:10;;;;;;;3.33;0.90;;;12.20;99.90;;;;;;4997138;28;20089;-77
2021/05/21 04:38:35;;;;;;;2.85;0.85;;;12.20;99.90;;;;;;4991056;28;20395;-78
2021/05/21 04:41:02;;;;;;;4.22;0.88;;;12.30;99.90;;;;;;4987289;28;20030;-77
2021/05/21 04:43:28;;;;;;;1.25;0.75;;;12.30;99.90;;;;;;4984515;28;20057;-77
2021/05/21 04:45:57;;;;;;;0.75;0.75;;;12.40;98.00;;;;;;4983976;28;20114;-79
2021/05/21 04:48:23;;;;;;;3.42;1.02;;;12.40;96.50;;;;;;4984111;28;20023;-77
2021/05/21 04:50:50;;;;;;;2.67;0.80;;;12.60;65.70;;;;;;4982992;28;20039;-77
2021/05/21 04:53:16;;;;;;;1.20;0.60;;;12.70;75.80;;;;;;5003469;23;20364;-76
2021/05/21 04:55:42;;;;;;;1.85;0.60;;;12.70;42.20;;;;;;4991180;28;20023;-76
2021/05/21 04:58:08;;;;;;;1.52;0.77;;;12.70;23.60;;;;;;4990960;28;20483;-76
2021/05/21 05:00:34;;;;;;;1.00;0.70;;;12.70;23.10;;;;;;4990751;28;20483;-77
2021/05/21 05:03:04;;;;;;;2.25;0.70;;;12.80;22.90;;;;;;4990617;28;20065;-76
2021/05/21 05:05:30;;;;;;;4.55;0.68;;;12.90;2.20;;;;;;4991040;28;20034;-76
2021/05/21 05:07:55;;;;;;;1.20;0.85;;;12.90;1.00;;;;;;4991355;28;20142;-76
2021/05/21 05:10:21;;;;;;;1.90;1.00;;;12.90;1.00;;;;;;4989225;28;20030;-76
2021/05/21 05:12:46;;;;;;;4.70;1.45;;;13.10;1.00;;;;;;4991094;28;20066;-76
2021/05/21 05:15:12;;;;;;;3.50;0.93;;;13.10;1.00;;;;;;4991180;28;20047;-77
2021/05/21 05:17:38;;;;;;;2.63;0.80;;;13.20;1.00;;;;;;4991413;28;20037;-77
2021/05/21 05:20:04;;;;;;;2.13;1.67;;;13.30;1.00;;;;;;4989261;28;20028;-77
2021/05/21 05:22:31;;;;;;;2.03;0.73;;;13.40;99.90;;;;;;4995538;28;20081;-74
2021/05/21 05:24:57;;;;;;;4.50;2.30;;;13.50;99.90;;;;;;5000591;28;20106;-76
2021/05/21 05:27:23;;;;;;;2.67;1.10;;;13.50;99.90;;;;;;5001125;28;20344;-75
2021/05/21 05:29:49;;;;;;;1.35;0.90;;;13.50;99.90;;;;;;4997895;28;20101;-77
2021/05/21 05:32:15;;;;;;;1.05;0.70;;;13.60;99.90;;;;;;5001244;28;20026;-75
2021/05/21 05:34:40;;;;;;;2.85;0.98;;;13.60;99.90;;;;;;4999464;28;20026;-75
2021/05/21 05:37:06;;;;;;;3.10;0.80;;;13.60;99.90;;;;;;5003526;28;20026;-75
2021/05/21 05:39:31;;;;;;;2.22;0.90;;;13.60;84.50;;;;;;5002060;28;20828;-75
2021/05/21 05:41:57;;;;;;;7.82;1.05;;;13.60;83.10;;;;;;5003237;28;20038;-75
2021/05/21 05:44:22;;;;;;;2.15;0.88;;;13.70;1.00;;;;;;5003246;28;20026;-78
2021/05/21 05:46:48;;;;;;;4.35;2.15;;;13.70;1.00;;;;;;4994679;28;20366;-77
2021/05/21 05:49:14;;;;;;;1.75;0.70;;;13.70;1.00;;;;;;4993448;28;20096;-76
2021/05/21 05:51:40;;;;;;;2.92;0.75;;;13.80;99.90;;;;;;4993697;28;20038;-76
2021/05/21 05:54:06;;;;;;;1.70;0.70;;;13.80;99.90;;;;;;4993861;28;20475;-76
2021/05/21 05:56:31;;;;;;;1.17;0.70;;;13.90;99.90;;;;;;4993874;28;20096;-76
2021/05/21 05:58:57;;;;;;;6.40;0.70;;;14.10;99.90;;;;;;4992937;28;20030;-76
2021/05/21 06:01:22;;;;;;;1.98;0.60;;;14.20;99.90;;;;;;4993560;28;20022;-75
2021/05/21 06:03:48;;;;;;;3.33;0.70;;;14.20;67.50;;;;;;4993778;28;20027;-77
2021/05/21 06:06:14;;;;;;;2.50;0.93;;;14.20;1.00;;;;;;4992845;28;20558;-77
2021/05/21 06:08:39;;;;;;;2.13;0.60;;;14.20;99.90;;;;;;4992641;28;20117;-76
2021/05/21 06:11:05;;;;;;;1.25;0.70;;;14.40;99.90;;;;;;4989424;28;20038;-76
2021/05/21 06:13:31;;;;;;;2.95;0.80;;;14.50;32.40;;;;;;4993366;28;20113;-75
2021/05/21 06:15:56;;;;;;;4.90;0.68;;;14.60;99.90;;;;;;4993356;28;20034;-76
2021/05/21 06:18:22;;;;;;;3.75;0.70;;;14.70;6.10;;;;;;4991375;28;20077;-77
2021/05/21 06:20:48;;;;;;;1.85;0.80;;;14.80;1.00;;;;;;4993051;28;20081;-76
2021/05/21 06:23:15;;;;;;;3.30;0.60;;;14.80;99.90;;;;;;4993585;28;20446;-76
2021/05/21 06:25:55;;;;;;;8.68;0.82;;;15.00;99.90;;;;;;4991835;28;20058;-76
2021/05/21 06:28:22;;;;;;;2.65;0.60;;;15.00;19.50;;;;;;4993198;28;21316;-76
2021/05/21 06:30:49;;;;;;;3.22;0.80;;;15.20;1.00;;;;;;5007957;28;20018;-76
2021/05/21 06:33:15;;;;;;;1.00;0.65;;;15.30;1.00;;;;;;4992870;28;20026;-76
2021/05/21 06:35:41;;;;;;;1.08;0.55;;;15.30;99.90;;;;;;4991061;28;20730;-76
2021/05/21 06:38:07;;;;;;;1.17;0.70;;;15.30;99.90;;;;;;4988682;28;20554;-76
2021/05/21 06:40:32;;;;;;;1.83;0.68;;;15.30;99.90;;;;;;4990309;28;20026;-76
2021/05/21 06:42:58;;;;;;;3.28;0.70;;;15.20;99.90;;;;;;4990012;28;20502;-77
2021/05/21 06:45:24;;;;;;;1.65;0.70;;;15.30;74.50;;;;;;4992769;28;20038;-76
2021/05/21 06:47:49;;;;;;;1.35;1.02;;;15.20;99.90;;;;;;4992817;28;20029;-76
2021/05/21 06:50:15;;;;;;;2.40;0.90;;;15.40;99.90;;;;;;4989290;28;20023;-76
2021/05/21 06:52:41;;;;;;;1.35;0.70;;;15.40;99.90;;;;;;4993261;28;20424;-76
2021/05/21 06:55:11;;;;;;;4.50;0.60;;;15.50;99.90;;;;;;5011164;28;20022;-75
2021/05/21 06:57:36;;;;;;;2.60;0.90;;;15.60;99.90;;;;;;4995834;28;20026;-75
2021/05/21 07:00:04;;;;;;;3.70;1.10;;;15.80;1.00;;;;;;4996090;28;20057;-75
2021/05/21 07:02:30;;;;;;;2.00;0.80;;;15.90;99.90;;;;;;4994102;28;20027;-75
2021/05/21 07:04:56;;;;;;;2.55;1.05;;;16.00;99.90;;;;;;4996578;28;20084;-75
2021/05/21 07:07:22;;;;;;;3.35;1.05;;;16.00;99.90;;;;;;4994704;28;20117;-77
2021/05/21 07:09:48;;;;;;;1.60;0.82;;;16.00;99.90;;;;;;4992543;28;20072;-76
2021/05/21 07:12:14;;;;;;;4.47;0.70;;;16.00;99.90;;;;;;4993103;28;20486;-75
2021/05/21 07:14:40;;;;;;;1.27;0.77;;;16.10;83.90;;;;;;4990480;28;20030;-75
2021/05/21 07:17:06;;;;;;;5.60;0.50;;;16.00;99.90;;;;;;4988460;28;20042;-75
2021/05/21 07:19:31;;;;;;;4.18;0.60;;;16.20;1.00;;;;;;4989468;28;20029;-80
2021/05/21 07:21:57;;;;;;;1.90;0.80;;;16.10;1.00;;;;;;4995977;28;20033;-81
2021/05/21 07:24:22;;;;;;;3.78;0.80;;;16.00;1.00;;;;;;4996132;28;20045;-80
2021/05/21 07:26:48;;;;;;;7.55;1.17;;;16.10;1.00;;;;;;5001413;28;20529;-81
2021/05/21 07:29:14;;;;;;;2.38;0.85;;;16.10;1.00;;;;;;4996856;28;20027;-80
2021/05/21 07:31:39;;;;;;;3.65;0.63;;;16.10;1.00;;;;;;4998870;28;20026;-80
2021/05/21 07:34:05;;;;;;;0.70;0.60;;;16.10;1.00;;;;;;4992522;28;20058;-81
2021/05/21 07:36:32;;;;;;;8.95;1.50;;;15.90;1.00;;;;;;5000248;28;20018;-81
2021/05/21 07:39:03;;;;;;;2.13;0.82;;;16.00;11.50;;;;;;4995391;28;20027;-81
2021/05/21 07:41:28;;;;;;;2.78;0.65;;;16.00;1.00;;;;;;4992491;28;20046;-81
2021/05/21 07:43:55;;;;;;;3.88;0.80;;;16.00;1.00;;;;;;4999927;28;20034;-81
2021/05/21 07:46:22;;;;;;;3.45;0.75;;;16.00;1.00;;;;;;5000051;28;20023;-79
2021/05/21 07:48:49;;;;;;;2.80;0.70;;;16.00;25.60;;;;;;5001054;28;20056;-80
2021/05/21 07:51:15;;;;;;;4.25;1.05;;;16.00;24.00;;;;;;4999019;28;20023;-80
2021/05/21 07:53:41;;;;;;;6.85;1.17;;;15.80;75.60;;;;;;5001451;28;20561;-81
2021/05/21 07:56:06;;;;;;;2.67;1.60;;;15.80;99.90;;;;;;5001352;28;20096;-82
2021/05/21 07:58:32;;;;;;;6.15;0.90;;;15.80;99.90;;;;;;5000423;28;20022;-81
2021/05/21 08:00:59;;;;;;;3.58;1.13;;;15.80;99.90;;;;;;5001986;28;20447;-81
2021/05/21 08:03:24;;;;;;;1.02;0.60;;;15.80;99.90;;;;;;4999365;28;20029;-81
2021/05/21 08:05:50;;;;;;;4.53;1.10;;;15.90;5.70;;;;;;5000135;28;20081;-80
2021/05/21 08:08:21;;;;;;;5.07;0.70;;;15.90;99.60;;;;;;4999974;28;20080;-80
2021/05/21 08:10:54;;;;;;;2.50;0.65;;;15.80;1.00;;;;;;5000293;28;20082;-80
2021/05/21 08:13:21;;;;;;;1.55;0.70;;;15.90;1.00;;;;;;5000451;28;20074;-80
2021/05/21 08:15:48;;;;;;;2.95;0.98;;;15.90;38.90;;;;;;4999849;28;20058;-81
2021/05/21 08:18:14;;;;;;;2.85;0.90;;;16.00;1.00;;;;;;5000701;28;20082;-82
2021/05/21 08:20:40;;;;;;;1.85;0.73;;;16.00;1.00;;;;;;4998884;28;20124;-80
2021/05/21 08:23:07;;;;;;;0.65;0.60;;;16.10;1.00;;;;;;5001407;28;20023;-81
2021/05/21 08:25:32;;;;;;;1.38;0.73;;;16.10;1.00;;;;;;5000914;28;20109;-81
2021/05/21 08:27:58;;;;;;;2.80;0.80;;;16.10;1.00;;;;;;5000037;28;20065;-80
2021/05/21 08:30:24;;;;;;;1.48;0.90;;;16.10;1.00;;;;;;5000272;28;20018;-80
2021/05/21 08:32:51;;;;;;;1.60;0.70;;;16.20;1.00;;;;;;4999930;28;20364;-81
2021/05/21 08:35:17;;;;;;;1.35;0.70;;;16.10;1.00;;;;;;5000823;28;20092;-81
2021/05/21 08:37:43;;;;;;;1.25;0.68;;;16.10;1.00;;;;;;4999003;28;20026;-81
2021/05/21 08:40:12;;;;;;;1.58;0.85;;;16.10;1.00;;;;;;4999520;28;20041;-81
2021/05/21 08:42:41;;;;;;;3.20;0.73;;;16.20;1.00;;;;;;4998282;28;20466;-80
2021/05/21 08:45:13;;;;;;;7.32;1.15;;;16.20;1.00;;;;;;4997512;28;20050;-81
2021/05/21 08:47:39;;;;;;;1.77;0.80;;;16.20;1.00;;;;;;4993928;28;20402;-79
2021/05/21 08:50:10;;;;;;;4.72;0.60;;;16.30;1.00;;;;;;5009707;28;20033;-80
2021/05/21 08:52:36;;;;;;;6.13;0.93;;;16.30;1.00;;;;;;4996766;28;20030;-81
2021/05/21 08:55:02;;;;;;;1.98;0.60;;;16.20;1.00;;;;;;4999443;28;20039;-83
2021/05/21 08:57:31;;;;;;;2.20;1.70;;;16.30;99.90;;;;;;4994440;28;20026;-81
2021/05/21 08:59:58;;;;;;;3.30;0.50;;;16.30;1.00;;;;;;4998603;28;20030;-83
2021/05/21 09:02:29;;;;;;;1.70;1.35;;;16.20;99.90;;;;;;4999579;28;20077;-80
2021/05/21 09:04:57;;;;;;;2.53;0.93;;;16.30;1.00;;;;;;4998358;28;20026;-81
2021/05/21 09:07:32;;;;;;;2.25;1.13;;;16.20;99.90;;;;;;4998308;28;20041;-81
2021/05/21 09:10:09;;;;;;;2.05;0.80;;;16.20;1.00;;;;;;4999933;28;20413;-82
2021/05/21 09:12:48;;;;;;;1.33;0.70;;;16.20;1.00;;;;;;5004091;28;20352;-81
2021/05/21 09:15:25;;;;;;;3.08;0.80;;;16.20;1.00;;;;;;5002654;28;20050;-80
2021/05/21 09:18:05;;;;;;;4.88;0.90;;;16.20;1.00;;;;;;5002125;28;20022;-81
2021/05/21 09:20:38;;;;;;;4.93;1.07;;;16.20;99.90;;;;;;4998843;28;20029;-82
2021/05/21 09:23:14;;;;;;;3.88;0.75;;;16.40;99.90;;;;;;4999714;28;20789;-82
2021/05/21 09:25:42;;;;;;;2.42;0.70;;;16.40;99.90;;;;;;5003455;28;20544;-82
2021/05/21 09:28:35;;;;;;;5.97;0.93;;;16.40;99.90;;;;;;5000095;28;20030;-80
2021/05/21 09:31:18;;;;;;;3.40;0.73;;;16.50;99.90;;;;;;5002344;28;20064;-81
2021/05/21 09:33:49;;;;;;;4.05;0.55;;;16.40;99.90;;;;;;4991428;28;20019;-81
2021/05/21 09:36:24;;;;;;;;;;;16.50;99.90;;;;;;4996974;28;20089;-82
2021/05/21 09:38:54;;;;;;;3.85;0.60;;;16.50;99.90;;;;;;4998468;28;19917;-83
2021/05/21 09:41:20;;;;;;;1.73;0.47;;;16.60;99.90;;;;;;4999584;28;20030;-79
2021/05/21 09:43:50;;;;;;;3.10;0.45;;;16.60;99.90;;;;;;4997984;28;20072;-80
2021/05/21 09:46:16;;;;;;;4.68;0.60;;;16.60;99.90;;;;;;4998574;28;20451;-81
2021/05/21 09:48:41;;;;;;;4.93;0.80;;;16.50;99.90;;;;;;5001160;28;20034;-81
2021/05/21 09:51:07;;;;;;;2.10;0.68;;;16.60;99.90;;;;;;4999997;28;20371;-81
2021/05/21 09:53:33;;;;;;;1.67;0.60;;;16.60;99.90;;;;;;5000580;28;20033;-80
2021/05/21 09:56:20;;;;;;;0.80;0.55;;;16.60;99.90;;;;;;5000791;28;20349;-81
2021/05/21 09:58:46;;;;;;;4.25;0.57;;;16.60;99.90;;;;;;4995067;28;20041;-82
2021/05/21 10:01:22;;;;;;;1.73;0.95;;;16.60;99.90;;;;;;4999346;28;20033;-81
2021/05/21 10:03:56;;;;;;;5.75;0.80;;;16.60;99.90;;;;;;5002495;28;20090;-81
2021/05/21 10:06:25;;;;;;;1.45;0.80;;;16.60;99.90;;;;;;5018471;28;20058;-80
2021/05/21 10:08:55;;;;;;;0.52;0.50;;;16.50;99.90;;;;;;5001428;28;20030;-81
2021/05/21 10:11:21;;;;;;;0.82;0.45;;;16.40;99.90;;;;;;5001790;28;20030;-81
2021/05/21 10:13:47;;;;;;;2.60;0.60;;;16.40;99.90;;;;;;5001934;28;20037;-81
2021/05/21 10:16:14;;;;;;;3.67;1.38;;;16.30;99.90;;;;;;4994014;28;20023;-79
2021/05/21 10:18:51;;;;;;;1.15;0.50;;;16.30;99.90;;;;;;5002096;28;20014;-81
2021/05/21 10:21:18;;;;;;;0.82;0.50;;;16.30;99.90;;;;;;5000554;28;20022;-81
2021/05/21 10:24:00;;;;;;;1.00;0.60;;;16.40;99.90;;;;;;4999644;28;20026;-81
2021/05/21 10:26:33;;;;;;;2.22;0.60;;;16.40;99.90;;;;;;5001058;28;20031;-80
2021/05/21 10:29:02;;;;;;;3.50;0.50;;;16.30;99.90;;;;;;5001259;28;20049;-82
2021/05/21 10:31:27;;;;;;;1.45;0.60;;;16.30;99.90;;;;;;5000791;28;20018;-80
2021/05/21 10:34:15;;;;;;;2.05;0.45;;;16.30;1.00;;;;;;5000608;28;20033;-80
2021/05/21 10:36:42;;;;;;;11.18;0.70;;;16.20;1.00;;;;;;5004043;28;20049;-82
2021/05/21 10:39:10;;;;;;;0.57;0.40;;;16.30;1.00;;;;;;5002200;28;20026;-83
2021/05/21 10:41:37;;;;;;;3.53;0.47;;;16.30;1.00;;;;;;5000856;28;20057;-80
2021/05/21 10:44:27;;;;;;;0.75;0.30;;;16.40;19.30;;;;;;5008461;28;20022;-80
2021/05/21 10:47:20;;;;;;;3.00;1.40;;;16.40;69.10;;;;;;5001134;28;20055;-81
2021/05/21 10:49:52;;;;;;;1.85;0.50;;;16.40;99.90;;;;;;4993936;28;20560;-82
2021/05/21 10:52:47;;;;;;;1.20;0.50;;;16.40;99.90;;;;;;4999175;28;20038;-81
2021/05/21 10:55:13;;;;;;;1.20;0.45;;;16.60;99.90;;;;;;4995658;28;20488;-82
2021/05/21 10:57:39;;;;;;;1.02;0.60;;;16.60;99.90;;;;;;4999092;28;20069;-82
2021/05/21 11:00:05;;;;;;;2.83;0.60;;;16.60;99.90;;;;;;5015579;28;20612;-81
2021/05/21 11:02:43;;;;;;;1.30;1.08;;;16.70;99.90;;;;;;5000356;28;20029;-81
2021/05/21 11:05:24;;;;;;;1.48;0.50;;;16.90;99.90;;;;;;5001340;28;20042;-80
2021/05/21 11:07:55;;;;;;;3.03;0.70;;;17.00;99.90;;;;;;5015990;28;20090;-82
2021/05/21 11:10:32;;;;;;;0.45;0.45;;;17.00;99.90;;;;;;5014868;28;20026;-80
2021/05/21 11:13:04;;;;;;;1.15;0.70;;;16.90;99.90;;;;;;5014458;28;20026;-81
2021/05/21 11:15:33;;;;;;;0.85;0.60;;;17.00;99.90;;;;;;4982318;28;20038;-82
2021/05/21 11:18:14;;;;;;;1.00;0.57;;;17.20;99.90;;;;;;5002458;28;20053;-82
2021/05/21 11:21:04;;;;;;;1.08;1.00;;;17.50;5.70;;;;;;4985140;28;20023;-81
2021/05/21 11:23:40;;;;;;;5.07;0.50;;;17.40;1.00;;;;;;5009240;28;20070;-81
2021/05/21 11:26:13;;;;;;;0.60;0.47;;;17.40;4.10;;;;;;4998690;28;20113;-83
2021/05/21 11:28:46;;;;;;;1.45;0.80;;;17.40;1.00;;;;;;5002732;28;20037;-82
2021/05/21 11:31:13;;;;;;;2.25;1.38;;;17.50;1.00;;;;;;5000465;28;20022;-81
2021/05/21 11:33:39;;;;;;;0.70;0.57;;;17.60;1.00;;;;;;4997152;28;20019;-81
2021/05/21 11:36:07;;;;;;;0.50;0.50;;;17.70;1.00;;;;;;5001098;28;20058;-81
2021/05/21 11:38:33;;;;;;;7.53;0.50;;;17.90;99.90;;;;;;4998113;28;20080;-81
2021/05/21 11:40:59;;;;;;;7.63;1.33;;;18.00;99.90;;;;;;4995127;28;20062;-80
2021/05/21 11:43:25;;;;;;;1.05;0.60;;;18.10;99.90;;;;;;4997769;28;20041;-81
2021/05/21 11:45:53;;;;;;;0.60;0.57;;;18.30;99.90;;;;;;4998329;28;20118;-81
2021/05/21 11:48:36;;;;;;;1.17;0.60;;;18.40;99.90;;;;;;5000899;28;20030;-81
2021/05/21 11:51:03;;;;;;;1.00;0.45;;;18.50;36.20;;;;;;5001217;28;20111;-80
2021/05/21 11:53:29;;;;;;;1.40;0.50;;;18.50;99.90;;;;;;5002619;28;20124;-80
2021/05/21 11:55:55;;;;;;;2.67;0.60;;;18.60;96.80;;;;;;5000994;28;20126;-81
2021/05/21 11:58:26;;;;;;;3.83;0.80;;;18.40;99.90;;;;;;4996285;28;20039;-81
2021/05/21 12:00:58;;;;;;;0.98;0.47;;;18.40;99.90;;;;;;4981405;28;20023;-81
2021/05/21 12:03:23;;;;;;;2.72;0.60;;;18.30;70.20;;;;;;4997200;28;20035;-80
2021/05/21 12:05:49;;;;;;;1.52;0.47;;;18.10;21.40;;;;;;5001862;28;20033;-80
2021/05/21 12:08:15;;;;;;;1.55;0.47;;;17.90;1.00;;;;;;4999612;28;20031;-83
2021/05/21 12:10:52;;;;;;;0.50;0.43;;;17.90;1.00;;;;;;4992959;28;20028;-84
2021/05/21 12:13:18;;;;;;;0.75;0.60;;;17.80;1.00;;;;;;4991932;28;20018;-84
2021/05/21 12:15:43;;;;;;;1.73;0.60;;;17.80;1.00;;;;;;5001102;28;20080;-84
2021/05/21 12:18:10;;;;;;;3.63;0.60;;;17.90;1.00;;;;;;5004592;28;20107;-84
2021/05/21 12:20:36;;;;;;;2.72;0.63;;;17.90;1.00;;;;;;5002484;28;20092;-84
2021/05/21 12:23:06;;;;;;;1.95;0.75;;;18.00;99.90;;;;;;5002553;28;20514;-85
2021/05/21 12:25:42;;;;;;;2.15;0.75;;;17.90;99.90;;;;;;5006118;28;20042;-84
2021/05/21 12:28:07;;;;;;;2.75;0.50;;;18.00;99.90;;;;;;5015278;28;20030;-84
2021/05/21 12:30:35;;;;;;;1.00;0.80;;;18.20;99.90;;;;;;5015494;28;20074;-83
2021/05/21 12:33:01;;;;;;;1.45;0.70;;;18.10;99.90;;;;;;5014845;28;20106;-83
2021/05/21 12:35:43;;;;;;;1.17;0.50;;;18.20;99.90;;;;;;5009628;28;20034;-84
2021/05/21 12:38:10;;;;;;;2.92;0.57;;;18.20;99.90;;;;;;5011165;28;20086;-83
2021/05/21 12:40:54;;;;;;;2.92;0.73;;;18.30;99.90;;;;;;5012340;28;20011;-86
2021/05/21 12:43:19;;;;;;;1.65;0.60;;;18.10;99.90;;;;;;4997389;28;20027;-87
2021/05/21 12:46:06;;;;;;;1.67;0.50;;;18.20;99.90;;;;;;4999944;28;20446;-86
2021/05/21 12:48:46;;;;;;;0.57;0.32;;;18.10;99.90;;;;;;5001283;28;20026;-86
2021/05/21 12:51:13;;;;;;;1.25;0.40;;;18.00;99.90;;;;;;5003051;28;20134;-87
2021/05/21 12:53:38;;;;;;;2.60;0.60;;;18.00;99.90;;;;;;5004972;28;20034;-86